No particular awareness of the weather is required.    There are no Weather-warnings


Meteo18 Weather Cam more information Meteo18 Weather Cam


Thunder radar more information blitzortung!


Rain radar more information rain snow radar


Visit our other weather sites:

Template documentation
and downloads

And another site



Weather Underground History page Text

Daily Summary for July 1, 2017 Units:  Both    English   Metric
« Previous Day
Next Day »
Daily Weekly Monthly Yearly Custom
  High: Low: Average:
Temperature: TemperatureC °F /  -17.8 °C 12.7 °F /  -10.7 °C 14.1 °F /  -9.9 °C
Dew Point: DewpointC °F /  -17.8 °C 11.7 °F /  -11.3 °C 13.1 °F /  -10.5 °C
Humidity: Humidity % 91 % 94 %
Wind Speed: WindSpeedKMH mph /  0 km/h - 7.1 mph /  11.4 km/h
Wind Gust: WindSpeedGustKMH mph /  0 km/h - -
Wind:- - West
Pressure: PressurehPa in /  0 hPa 1013.1 in /  34303.6 hPa -
Precipitation: 9.9 in /  251.46 mm    
Historical Graphs
 
 
Tabular Data for July 1, 2017
Time Temperature Dew Point Pressure Wind Wind Speed Wind Gust Humidity Rainfall Rate (Hourly)
TemperatureC °F /  -17.8 °C DewpointC °F /  -17.8 °C PressurehPa in /  0 hPa Calm     Humidity % HourlyPrecipMM in /  0 mm
00:02 13.1 °F /  -10.5 °C 11.7 °F /  -11.3 °C 1013.1 in /  34303.6 hPa SSW 4.8 mph /  7.7 km/h 17.7 mph /  28.5 km/h 91 % 0.0 in /  0 mm
00:12 13.1 °F /  -10.5 °C 11.7 °F /  -11.3 °C 1013.1 in /  34303.6 hPa SW 11.3 mph /  18.2 km/h 16.1 mph /  25.9 km/h 91 % 0.0 in /  0 mm
00:22 13.1 °F /  -10.5 °C 11.8 °F /  -11.2 °C 1013.1 in /  34303.6 hPa SW 8.0 mph /  12.9 km/h 19.3 mph /  31.1 km/h 92 % 0.0 in /  0 mm
00:32 13.1 °F /  -10.5 °C 11.8 °F /  -11.2 °C 1013.1 in /  34303.6 hPa WSW 4.8 mph /  7.7 km/h 16.1 mph /  25.9 km/h 92 % 0.0 in /  0 mm
00:42 13.1 °F /  -10.5 °C 11.8 °F /  -11.2 °C 1013.1 in /  34303.6 hPa WSW 6.4 mph /  10.3 km/h 16.1 mph /  25.9 km/h 92 % 0.0 in /  0 mm
00:47 13.1 °F /  -10.5 °C 11.8 °F /  -11.2 °C 1013.4 in /  34313.7 hPa WSW 4.8 mph /  7.7 km/h 20.9 mph /  33.6 km/h 92 % 0.0 in /  0 mm
00:52 13.1 °F /  -10.5 °C 11.8 °F /  -11.2 °C 1013.4 in /  34313.7 hPa WSW 12.9 mph /  20.8 km/h 20.9 mph /  33.6 km/h 92 % 0.0 in /  0 mm
00:57 13.2 °F /  -10.4 °C 11.9 °F /  -11.2 °C 1013.4 in /  34313.7 hPa WSW 8.0 mph /  12.9 km/h 20.9 mph /  33.6 km/h 92 % 0.0 in /  0 mm
01:02 13.2 °F /  -10.4 °C 11.9 °F /  -11.2 °C 1013.4 in /  34313.7 hPa SW 11.3 mph /  18.2 km/h 17.7 mph /  28.5 km/h 92 % 0.0 in /  0 mm
01:12 13.2 °F /  -10.4 °C 12.1 °F /  -11.1 °C 1013.4 in /  34313.7 hPa WSW 8.0 mph /  12.9 km/h 17.7 mph /  28.5 km/h 93 % 0.0 in /  0 mm
01:17 13.2 °F /  -10.4 °C 12.1 °F /  -11.1 °C 1013.4 in /  34313.7 hPa SW 12.9 mph /  20.8 km/h 17.7 mph /  28.5 km/h 93 % 0.0 in /  0 mm
01:22 13.2 °F /  -10.4 °C 12.1 °F /  -11.1 °C 1013.8 in /  34327.3 hPa WSW 6.4 mph /  10.3 km/h 17.7 mph /  28.5 km/h 93 % 0.0 in /  0 mm
01:32 13.2 °F /  -10.4 °C 12.1 °F /  -11.1 °C 1013.4 in /  34313.7 hPa SW 11.3 mph /  18.2 km/h 17.7 mph /  28.5 km/h 93 % 0.0 in /  0 mm
01:42 13.2 °F /  -10.4 °C 12.1 °F /  -11.1 °C 1013.8 in /  34327.3 hPa WSW 12.9 mph /  20.8 km/h 17.7 mph /  28.5 km/h 93 % 0.0 in /  0 mm
01:47 13.2 °F /  -10.4 °C 12.1 °F /  -11.1 °C 1013.8 in /  34327.3 hPa SW 20.9 mph /  33.6 km/h 20.9 mph /  33.6 km/h 93 % 0.0 in /  0 mm
01:52 13.2 °F /  -10.4 °C 12.1 °F /  -11.1 °C 1013.8 in /  34327.3 hPa SW 9.7 mph /  15.6 km/h 17.7 mph /  28.5 km/h 93 % 0.0 in /  0 mm
02:02 13.2 °F /  -10.4 °C 12.1 °F /  -11.1 °C 1013.8 in /  34327.3 hPa WSW 4.8 mph /  7.7 km/h 20.9 mph /  33.6 km/h 93 % 0.0 in /  0 mm
02:12 13.1 °F /  -10.5 °C 12.0 °F /  -11.1 °C 1013.8 in /  34327.3 hPa SW 9.7 mph /  15.6 km/h 16.1 mph /  25.9 km/h 93 % 0.0 in /  0 mm
02:17 13.1 °F /  -10.5 °C 12.2 °F /  -11 °C 1013.8 in /  34327.3 hPa SW 6.4 mph /  10.3 km/h 19.3 mph /  31.1 km/h 94 % 0.0 in /  0 mm
02:22 13.1 °F /  -10.5 °C 12.2 °F /  -11 °C 1013.8 in /  34327.3 hPa SW 11.3 mph /  18.2 km/h 19.3 mph /  31.1 km/h 94 % 0.0 in /  0 mm
02:32 13.0 °F /  -10.6 °C 12.1 °F /  -11.1 °C 1013.8 in /  34327.3 hPa WSW 8.0 mph /  12.9 km/h 14.5 mph /  23.3 km/h 94 % 0.0 in /  0 mm
02:42 12.9 °F /  -10.6 °C 12.0 °F /  -11.1 °C 1013.8 in /  34327.3 hPa SW 9.7 mph /  15.6 km/h 19.3 mph /  31.1 km/h 94 % 0.3 in /  7.62 mm
02:47 12.9 °F /  -10.6 °C 12.1 °F /  -11.1 °C 1013.8 in /  34327.3 hPa WSW 11.3 mph /  18.2 km/h 19.3 mph /  31.1 km/h 95 % 0.3 in /  7.62 mm
02:52 12.8 °F /  -10.7 °C 12.0 °F /  -11.1 °C 1013.8 in /  34327.3 hPa West 9.7 mph /  15.6 km/h 19.3 mph /  31.1 km/h 95 % 0.3 in /  7.62 mm
03:02 12.8 °F /  -10.7 °C 12.0 °F /  -11.1 °C 1013.8 in /  34327.3 hPa West 4.8 mph /  7.7 km/h 17.7 mph /  28.5 km/h 95 % 0.5 in /  12.7 mm
03:07 12.8 °F /  -10.7 °C 12.0 °F /  -11.1 °C 1014.1 in /  34337.4 hPa WSW 6.4 mph /  10.3 km/h 22.5 mph /  36.2 km/h 95 % 0.5 in /  12.7 mm
03:12 12.7 °F /  -10.7 °C 11.9 °F /  -11.2 °C 1014.1 in /  34337.4 hPa WSW 20.9 mph /  33.6 km/h 22.5 mph /  36.2 km/h 95 % 0.5 in /  12.7 mm
03:17 12.7 °F /  -10.7 °C 11.9 °F /  -11.2 °C 1014.1 in /  34337.4 hPa SW 3.2 mph /  5.1 km/h 20.9 mph /  33.6 km/h 95 % 0.5 in /  12.7 mm
03:22 12.7 °F /  -10.7 °C 11.9 °F /  -11.2 °C 1014.1 in /  34337.4 hPa SSW 12.9 mph /  20.8 km/h 20.9 mph /  33.6 km/h 95 % 0.5 in /  12.7 mm
03:27 12.7 °F /  -10.7 °C 11.9 °F /  -11.2 °C 1014.1 in /  34337.4 hPa SW 4.8 mph /  7.7 km/h 20.9 mph /  33.6 km/h 95 % 0.3 in /  7.62 mm
03:32 12.7 °F /  -10.7 °C 11.9 °F /  -11.2 °C 1014.1 in /  34337.4 hPa SW 8.0 mph /  12.9 km/h 19.3 mph /  31.1 km/h 95 % 0.3 in /  7.62 mm
03:37 12.7 °F /  -10.7 °C 11.9 °F /  -11.2 °C 1014.1 in /  34337.4 hPa SW 4.8 mph /  7.7 km/h 19.3 mph /  31.1 km/h 95 % 0.3 in /  7.62 mm
03:42 12.7 °F /  -10.7 °C 11.9 °F /  -11.2 °C 1014.1 in /  34337.4 hPa South 3.2 mph /  5.1 km/h 17.7 mph /  28.5 km/h 95 % 0.3 in /  7.62 mm
03:47 12.7 °F /  -10.7 °C 11.9 °F /  -11.2 °C 1014.1 in /  34337.4 hPa West 3.2 mph /  5.1 km/h 16.1 mph /  25.9 km/h 95 % 0.0 in /  0 mm
03:52 12.7 °F /  -10.7 °C 11.9 °F /  -11.2 °C 1014.1 in /  34337.4 hPa West 8.0 mph /  12.9 km/h 19.3 mph /  31.1 km/h 95 % 0.0 in /  0 mm
03:57 12.7 °F /  -10.7 °C 11.9 °F /  -11.2 °C 1014.1 in /  34337.4 hPa West 8.0 mph /  12.9 km/h 19.3 mph /  31.1 km/h 95 % 0.0 in /  0 mm
04:02 12.7 °F /  -10.7 °C 11.9 °F /  -11.2 °C 1014.1 in /  34337.4 hPa SW 12.9 mph /  20.8 km/h 19.3 mph /  31.1 km/h 95 % 0.0 in /  0 mm
04:12 12.7 °F /  -10.7 °C 11.9 °F /  -11.2 °C 1014.1 in /  34337.4 hPa SW 14.5 mph /  23.3 km/h 19.3 mph /  31.1 km/h 95 % 0.3 in /  7.62 mm
04:22 12.7 °F /  -10.7 °C 11.9 °F /  -11.2 °C 1014.1 in /  34337.4 hPa WSW 9.7 mph /  15.6 km/h 22.5 mph /  36.2 km/h 95 % 0.3 in /  7.62 mm
04:27 12.7 °F /  -10.7 °C 11.9 °F /  -11.2 °C 1014.4 in /  34347.6 hPa WSW 6.4 mph /  10.3 km/h 22.5 mph /  36.2 km/h 95 % 0.3 in /  7.62 mm
04:32 12.7 °F /  -10.7 °C 11.9 °F /  -11.2 °C 1014.4 in /  34347.6 hPa WSW 11.3 mph /  18.2 km/h 19.3 mph /  31.1 km/h 95 % 0.3 in /  7.62 mm
04:37 12.7 °F /  -10.7 °C 11.9 °F /  -11.2 °C 1014.4 in /  34347.6 hPa SW 14.5 mph /  23.3 km/h 19.3 mph /  31.1 km/h 95 % 0.3 in /  7.62 mm
04:42 12.7 °F /  -10.7 °C 11.9 °F /  -11.2 °C 1014.4 in /  34347.6 hPa WSW 11.3 mph /  18.2 km/h 19.3 mph /  31.1 km/h 95 % 0.3 in /  7.62 mm
04:47 12.7 °F /  -10.7 °C 11.9 °F /  -11.2 °C 1014.4 in /  34347.6 hPa SW 8.0 mph /  12.9 km/h 20.9 mph /  33.6 km/h 95 % 0.3 in /  7.62 mm
04:52 12.7 °F /  -10.7 °C 11.9 °F /  -11.2 °C 1014.4 in /  34347.6 hPa WSW 4.8 mph /  7.7 km/h 20.9 mph /  33.6 km/h 95 % 0.3 in /  7.62 mm
04:57 12.7 °F /  -10.7 °C 11.9 °F /  -11.2 °C 1014.4 in /  34347.6 hPa SW 8.0 mph /  12.9 km/h 20.9 mph /  33.6 km/h 95 % 0.5 in /  12.7 mm
05:02 12.7 °F /  -10.7 °C 11.9 °F /  -11.2 °C 1014.4 in /  34347.6 hPa SW 9.7 mph /  15.6 km/h 20.9 mph /  33.6 km/h 95 % 0.5 in /  12.7 mm
05:07 12.7 °F /  -10.7 °C 11.9 °F /  -11.2 °C 1014.4 in /  34347.6 hPa SW 8.0 mph /  12.9 km/h 17.7 mph /  28.5 km/h 95 % 0.3 in /  7.62 mm
05:12 12.7 °F /  -10.7 °C 11.9 °F /  -11.2 °C 1014.4 in /  34347.6 hPa SW 4.8 mph /  7.7 km/h 17.7 mph /  28.5 km/h 95 % 0.3 in /  7.62 mm
05:17 12.7 °F /  -10.7 °C 11.9 °F /  -11.2 °C 1014.4 in /  34347.6 hPa SW 4.8 mph /  7.7 km/h 16.1 mph /  25.9 km/h 95 % 0.5 in /  12.7 mm
05:27 12.7 °F /  -10.7 °C 12.1 °F /  -11.1 °C 1014.4 in /  34347.6 hPa SSW 3.2 mph /  5.1 km/h 16.1 mph /  25.9 km/h 96 % 0.5 in /  12.7 mm
05:32 12.7 °F /  -10.7 °C 12.1 °F /  -11.1 °C 1014.8 in /  34361.1 hPa WSW 3.2 mph /  5.1 km/h 16.1 mph /  25.9 km/h 96 % 0.5 in /  12.7 mm
05:37 12.8 °F /  -10.7 °C 12.2 °F /  -11 °C 1014.8 in /  34361.1 hPa West 3.2 mph /  5.1 km/h 12.9 mph /  20.8 km/h 96 % 1.0 in /  25.4 mm
05:42 12.8 °F /  -10.7 °C 12.2 °F /  -11 °C 1014.8 in /  34361.1 hPa North 1.6 mph /  2.6 km/h 12.9 mph /  20.8 km/h 96 % 1.0 in /  25.4 mm
05:47 12.8 °F /  -10.7 °C 12.2 °F /  -11 °C 1014.8 in /  34361.1 hPa WSW 4.8 mph /  7.7 km/h 14.5 mph /  23.3 km/h 96 % 1.3 in /  33.02 mm
05:52 12.8 °F /  -10.7 °C 12.2 °F /  -11 °C 1014.8 in /  34361.1 hPa SW 8.0 mph /  12.9 km/h 14.5 mph /  23.3 km/h 96 % 1.0 in /  25.4 mm
05:57 12.8 °F /  -10.7 °C 12.2 °F /  -11 °C 1014.8 in /  34361.1 hPa West 11.3 mph /  18.2 km/h 14.5 mph /  23.3 km/h 96 % 1.0 in /  25.4 mm
06:02 12.9 °F /  -10.6 °C 12.3 °F /  -10.9 °C 1014.8 in /  34361.1 hPa West 8.0 mph /  12.9 km/h 14.5 mph /  23.3 km/h 96 % 1.0 in /  25.4 mm
06:07 12.9 °F /  -10.6 °C 12.3 °F /  -10.9 °C 1014.8 in /  34361.1 hPa WSW 4.8 mph /  7.7 km/h 14.5 mph /  23.3 km/h 96 % 1.0 in /  25.4 mm
06:12 12.9 °F /  -10.6 °C 12.3 °F /  -10.9 °C 1014.8 in /  34361.1 hPa West 8.0 mph /  12.9 km/h 14.5 mph /  23.3 km/h 96 % 1.0 in /  25.4 mm
06:17 12.9 °F /  -10.6 °C 12.3 °F /  -10.9 °C 1015.1 in /  34371.3 hPa WSW 4.8 mph /  7.7 km/h 14.5 mph /  23.3 km/h 96 % 0.8 in /  20.32 mm
06:22 12.9 °F /  -10.6 °C 12.3 °F /  -10.9 °C 1015.1 in /  34371.3 hPa West 8.0 mph /  12.9 km/h 12.9 mph /  20.8 km/h 96 % 0.8 in /  20.32 mm
06:27 12.9 °F /  -10.6 °C 12.3 °F /  -10.9 °C 1015.1 in /  34371.3 hPa WSW 11.3 mph /  18.2 km/h 12.9 mph /  20.8 km/h 96 % 0.8 in /  20.32 mm
06:32 12.9 °F /  -10.6 °C 12.3 °F /  -10.9 °C 1015.1 in /  34371.3 hPa West 6.4 mph /  10.3 km/h 14.5 mph /  23.3 km/h 96 % 0.5 in /  12.7 mm
06:37 13.0 °F /  -10.6 °C 12.4 °F /  -10.9 °C 1015.1 in /  34371.3 hPa West 6.4 mph /  10.3 km/h 14.5 mph /  23.3 km/h 96 % 0.5 in /  12.7 mm
06:42 13.0 °F /  -10.6 °C 12.4 °F /  -10.9 °C 1015.1 in /  34371.3 hPa WSW 4.8 mph /  7.7 km/h 12.9 mph /  20.8 km/h 96 % 0.0 in /  0 mm
06:47 13.0 °F /  -10.6 °C 12.4 °F /  -10.9 °C 1015.5 in /  34384.8 hPa West 4.8 mph /  7.7 km/h 12.9 mph /  20.8 km/h 96 % 0.0 in /  0 mm
06:52 13.1 °F /  -10.5 °C 12.5 °F /  -10.8 °C 1015.5 in /  34384.8 hPa West 6.4 mph /  10.3 km/h 12.9 mph /  20.8 km/h 96 % 0.0 in /  0 mm
06:57 13.1 °F /  -10.5 °C 12.5 °F /  -10.8 °C 1015.5 in /  34384.8 hPa West 4.8 mph /  7.7 km/h 12.9 mph /  20.8 km/h 96 % 0.0 in /  0 mm
07:02 13.1 °F /  -10.5 °C 12.5 °F /  -10.8 °C 1015.5 in /  34384.8 hPa WSW 6.4 mph /  10.3 km/h 12.9 mph /  20.8 km/h 96 % 0.0 in /  0 mm
07:07 13.1 °F /  -10.5 °C 12.5 °F /  -10.8 °C 1015.5 in /  34384.8 hPa WSW 6.4 mph /  10.3 km/h 11.3 mph /  18.2 km/h 96 % 0.0 in /  0 mm
07:12 13.1 °F /  -10.5 °C 12.5 °F /  -10.8 °C 1015.5 in /  34384.8 hPa West 3.2 mph /  5.1 km/h 11.3 mph /  18.2 km/h 96 % 0.0 in /  0 mm
07:17 13.2 °F /  -10.4 °C 12.6 °F /  -10.8 °C 1015.5 in /  34384.8 hPa West 8.0 mph /  12.9 km/h 11.3 mph /  18.2 km/h 96 % 0.0 in /  0 mm
07:22 13.2 °F /  -10.4 °C 12.6 °F /  -10.8 °C 1015.8 in /  34395 hPa WSW 3.2 mph /  5.1 km/h 11.3 mph /  18.2 km/h 96 % 0.0 in /  0 mm
07:27 13.2 °F /  -10.4 °C 12.6 °F /  -10.8 °C 1015.8 in /  34395 hPa West 3.2 mph /  5.1 km/h 11.3 mph /  18.2 km/h 96 % 0.0 in /  0 mm
07:32 13.2 °F /  -10.4 °C 12.6 °F /  -10.8 °C 1015.8 in /  34395 hPa West 4.8 mph /  7.7 km/h 11.3 mph /  18.2 km/h 96 % 0.0 in /  0 mm
07:37 13.2 °F /  -10.4 °C 12.6 °F /  -10.8 °C 1015.8 in /  34395 hPa WSW 4.8 mph /  7.7 km/h 12.9 mph /  20.8 km/h 96 % 0.3 in /  7.62 mm
07:42 13.3 °F /  -10.4 °C 12.7 °F /  -10.7 °C 1015.8 in /  34395 hPa WNW 4.8 mph /  7.7 km/h 12.9 mph /  20.8 km/h 96 % 0.3 in /  7.62 mm
07:47 13.3 °F /  -10.4 °C 12.7 °F /  -10.7 °C 1015.8 in /  34395 hPa West 3.2 mph /  5.1 km/h 12.9 mph /  20.8 km/h 96 % 0.3 in /  7.62 mm
07:52 13.3 °F /  -10.4 °C 12.7 °F /  -10.7 °C 1015.8 in /  34395 hPa WSW 6.4 mph /  10.3 km/h 12.9 mph /  20.8 km/h 96 % 0.3 in /  7.62 mm
07:57 13.3 °F /  -10.4 °C 12.7 °F /  -10.7 °C 1016.1 in /  34405.1 hPa West 4.8 mph /  7.7 km/h 9.7 mph /  15.6 km/h 96 % 0.3 in /  7.62 mm
08:02 13.3 °F /  -10.4 °C 12.7 °F /  -10.7 °C 1016.1 in /  34405.1 hPa West 4.8 mph /  7.7 km/h 9.7 mph /  15.6 km/h 96 % 0.3 in /  7.62 mm
08:12 13.4 °F /  -10.3 °C 12.6 °F /  -10.8 °C 1016.1 in /  34405.1 hPa WSW 4.8 mph /  7.7 km/h 11.3 mph /  18.2 km/h 95 % 0.3 in /  7.62 mm
08:17 13.4 °F /  -10.3 °C 12.6 °F /  -10.8 °C 1016.1 in /  34405.1 hPa WSW 6.4 mph /  10.3 km/h 11.3 mph /  18.2 km/h 95 % 0.3 in /  7.62 mm
08:22 13.5 °F /  -10.3 °C 12.7 °F /  -10.7 °C 1016.1 in /  34405.1 hPa WNW 4.8 mph /  7.7 km/h 11.3 mph /  18.2 km/h 95 % 0.3 in /  7.62 mm
08:27 13.6 °F /  -10.2 °C 12.8 °F /  -10.7 °C 1016.1 in /  34405.1 hPa West 6.4 mph /  10.3 km/h 11.3 mph /  18.2 km/h 95 % 0.3 in /  7.62 mm
08:32 13.7 °F /  -10.2 °C 12.8 °F /  -10.7 °C 1016.1 in /  34405.1 hPa West 3.2 mph /  5.1 km/h 11.3 mph /  18.2 km/h 94 % 0.3 in /  7.62 mm
08:37 13.7 °F /  -10.2 °C 12.8 °F /  -10.7 °C 1016.5 in /  34418.7 hPa WSW 9.7 mph /  15.6 km/h 12.9 mph /  20.8 km/h 94 % 0.0 in /  0 mm
08:42 13.7 °F /  -10.2 °C 12.8 °F /  -10.7 °C 1016.5 in /  34418.7 hPa WNW 8.0 mph /  12.9 km/h 12.9 mph /  20.8 km/h 94 % 0.0 in /  0 mm
08:47 13.7 °F /  -10.2 °C 12.8 °F /  -10.7 °C 1016.5 in /  34418.7 hPa WNW 11.3 mph /  18.2 km/h 12.9 mph /  20.8 km/h 94 % 0.0 in /  0 mm
08:57 13.7 °F /  -10.2 °C 12.6 °F /  -10.8 °C 1016.5 in /  34418.7 hPa WNW 8.0 mph /  12.9 km/h 16.1 mph /  25.9 km/h 93 % 0.0 in /  0 mm
09:02 13.7 °F /  -10.2 °C 12.6 °F /  -10.8 °C 1016.5 in /  34418.7 hPa WSW 1.6 mph /  2.6 km/h 16.1 mph /  25.9 km/h 93 % 0.0 in /  0 mm
09:12 13.6 °F /  -10.2 °C 12.5 °F /  -10.8 °C 1016.8 in /  34428.8 hPa WNW 6.4 mph /  10.3 km/h 12.9 mph /  20.8 km/h 93 % 0.0 in /  0 mm
09:17 13.6 °F /  -10.2 °C 12.5 °F /  -10.8 °C 1016.8 in /  34428.8 hPa West 6.4 mph /  10.3 km/h 17.7 mph /  28.5 km/h 93 % 0.0 in /  0 mm
09:22 13.6 °F /  -10.2 °C 12.5 °F /  -10.8 °C 1016.8 in /  34428.8 hPa West 12.9 mph /  20.8 km/h 17.7 mph /  28.5 km/h 93 % 0.0 in /  0 mm
09:27 13.6 °F /  -10.2 °C 12.5 °F /  -10.8 °C 1016.8 in /  34428.8 hPa West 12.9 mph /  20.8 km/h 19.3 mph /  31.1 km/h 93 % 0.0 in /  0 mm
09:32 13.6 °F /  -10.2 °C 12.5 °F /  -10.8 °C 1016.8 in /  34428.8 hPa WNW 11.3 mph /  18.2 km/h 19.3 mph /  31.1 km/h 93 % 0.0 in /  0 mm
09:37 13.6 °F /  -10.2 °C 12.5 °F /  -10.8 °C 1016.8 in /  34428.8 hPa West 8.0 mph /  12.9 km/h 19.3 mph /  31.1 km/h 93 % 0.0 in /  0 mm
09:42 13.6 °F /  -10.2 °C 12.5 °F /  -10.8 °C 1017.2 in /  34442.4 hPa WSW 6.4 mph /  10.3 km/h 19.3 mph /  31.1 km/h 93 % 0.0 in /  0 mm
09:47 13.6 °F /  -10.2 °C 12.5 °F /  -10.8 °C 1017.2 in /  34442.4 hPa West 4.8 mph /  7.7 km/h 16.1 mph /  25.9 km/h 93 % 0.0 in /  0 mm
09:52 13.6 °F /  -10.2 °C 12.7 °F /  -10.7 °C 1017.2 in /  34442.4 hPa West 1.6 mph /  2.6 km/h 16.1 mph /  25.9 km/h 94 % 0.0 in /  0 mm
09:57 13.6 °F /  -10.2 °C 12.5 °F /  -10.8 °C 1017.2 in /  34442.4 hPa West 9.7 mph /  15.6 km/h 16.1 mph /  25.9 km/h 93 % 0.0 in /  0 mm
10:02 13.6 °F /  -10.2 °C 12.7 °F /  -10.7 °C 1017.2 in /  34442.4 hPa WNW 9.7 mph /  15.6 km/h 16.1 mph /  25.9 km/h 94 % 0.0 in /  0 mm
10:07 13.6 °F /  -10.2 °C 12.5 °F /  -10.8 °C 1017.2 in /  34442.4 hPa WSW 14.5 mph /  23.3 km/h 17.7 mph /  28.5 km/h 93 % 0.0 in /  0 mm
10:12 13.6 °F /  -10.2 °C 12.5 °F /  -10.8 °C 1017.5 in /  34452.6 hPa West 16.1 mph /  25.9 km/h 17.7 mph /  28.5 km/h 93 % 0.0 in /  0 mm
10:17 13.7 °F /  -10.2 °C 12.8 °F /  -10.7 °C 1017.5 in /  34452.6 hPa WNW 12.9 mph /  20.8 km/h 20.9 mph /  33.6 km/h 94 % 0.0 in /  0 mm
10:22 13.7 °F /  -10.2 °C 12.8 °F /  -10.7 °C 1017.5 in /  34452.6 hPa SW 1.6 mph /  2.6 km/h 20.9 mph /  33.6 km/h 94 % 0.0 in /  0 mm
10:27 13.8 °F /  -10.1 °C 12.9 °F /  -10.6 °C 1017.5 in /  34452.6 hPa WNW 4.8 mph /  7.7 km/h 20.9 mph /  33.6 km/h 94 % 0.0 in /  0 mm
10:32 13.8 °F /  -10.1 °C 12.9 °F /  -10.6 °C 1017.5 in /  34452.6 hPa West 3.2 mph /  5.1 km/h 17.7 mph /  28.5 km/h 94 % 0.0 in /  0 mm
10:42 13.8 °F /  -10.1 °C 12.9 °F /  -10.6 °C 1017.8 in /  34462.7 hPa WNW 6.4 mph /  10.3 km/h 17.7 mph /  28.5 km/h 94 % 0.0 in /  0 mm
10:47 13.9 °F /  -10.1 °C 12.9 °F /  -10.6 °C 1017.8 in /  34462.7 hPa WSW 3.2 mph /  5.1 km/h 17.7 mph /  28.5 km/h 94 % 0.0 in /  0 mm
10:57 13.9 °F /  -10.1 °C 12.8 °F /  -10.7 °C 1017.8 in /  34462.7 hPa West 8.0 mph /  12.9 km/h 14.5 mph /  23.3 km/h 93 % 0.0 in /  0 mm
11:02 13.9 °F /  -10.1 °C 12.8 °F /  -10.7 °C 1017.8 in /  34462.7 hPa West 6.4 mph /  10.3 km/h 14.5 mph /  23.3 km/h 93 % 0.0 in /  0 mm
11:12 14.0 °F /  -10 °C 12.9 °F /  -10.6 °C 1017.8 in /  34462.7 hPa West 11.3 mph /  18.2 km/h 20.9 mph /  33.6 km/h 93 % 0.0 in /  0 mm
11:17 14.1 °F /  -9.9 °C 13.0 °F /  -10.6 °C 1018.2 in /  34476.3 hPa WNW 9.7 mph /  15.6 km/h 20.9 mph /  33.6 km/h 93 % 0.0 in /  0 mm
11:22 14.1 °F /  -9.9 °C 13.0 °F /  -10.6 °C 1018.2 in /  34476.3 hPa SSW 8.0 mph /  12.9 km/h 19.3 mph /  31.1 km/h 93 % 0.0 in /  0 mm
11:27 14.2 °F /  -9.9 °C 13.1 °F /  -10.5 °C 1018.2 in /  34476.3 hPa WSW 9.7 mph /  15.6 km/h 19.3 mph /  31.1 km/h 93 % 0.0 in /  0 mm
11:32 14.2 °F /  -9.9 °C 13.1 °F /  -10.5 °C 1018.2 in /  34476.3 hPa WNW 11.3 mph /  18.2 km/h 19.3 mph /  31.1 km/h 93 % 0.0 in /  0 mm
11:37 14.2 °F /  -9.9 °C 13.1 °F /  -10.5 °C 1018.2 in /  34476.3 hPa WSW 9.7 mph /  15.6 km/h 22.5 mph /  36.2 km/h 93 % 0.0 in /  0 mm
11:42 14.1 °F /  -9.9 °C 13.0 °F /  -10.6 °C 1018.2 in /  34476.3 hPa WSW 9.7 mph /  15.6 km/h 22.5 mph /  36.2 km/h 93 % 0.0 in /  0 mm
11:52 14.2 °F /  -9.9 °C 13.2 °F /  -10.4 °C 1018.2 in /  34476.3 hPa WSW 8.0 mph /  12.9 km/h 24.1 mph /  38.8 km/h 94 % 0.0 in /  0 mm
11:57 14.2 °F /  -9.9 °C 13.2 °F /  -10.4 °C 1018.5 in /  34486.4 hPa WSW 19.3 mph /  31.1 km/h 19.3 mph /  31.1 km/h 94 % 0.0 in /  0 mm
12:02 14.2 °F /  -9.9 °C 13.1 °F /  -10.5 °C 1018.5 in /  34486.4 hPa West 9.7 mph /  15.6 km/h 20.9 mph /  33.6 km/h 93 % 0.0 in /  0 mm
12:12 14.2 °F /  -9.9 °C 13.1 °F /  -10.5 °C 1018.5 in /  34486.4 hPa West 16.1 mph /  25.9 km/h 20.9 mph /  33.6 km/h 93 % 0.3 in /  7.62 mm
12:17 14.2 °F /  -9.9 °C 13.1 °F /  -10.5 °C 1018.5 in /  34486.4 hPa West 9.7 mph /  15.6 km/h 20.9 mph /  33.6 km/h 93 % 0.3 in /  7.62 mm
12:22 14.3 °F /  -9.8 °C 13.2 °F /  -10.4 °C 1018.8 in /  34496.6 hPa West 8.0 mph /  12.9 km/h 20.9 mph /  33.6 km/h 93 % 0.3 in /  7.62 mm
12:32 14.4 °F /  -9.8 °C 13.3 °F /  -10.4 °C 1018.8 in /  34496.6 hPa WNW 6.4 mph /  10.3 km/h 17.7 mph /  28.5 km/h 93 % 0.3 in /  7.62 mm
12:42 14.6 °F /  -9.7 °C 13.5 °F /  -10.3 °C 1018.8 in /  34496.6 hPa West 4.8 mph /  7.7 km/h 17.7 mph /  28.5 km/h 93 % 0.5 in /  12.7 mm
12:52 14.8 °F /  -9.6 °C 13.5 °F /  -10.3 °C 1018.8 in /  34496.6 hPa West 8.0 mph /  12.9 km/h 20.9 mph /  33.6 km/h 92 % 0.5 in /  12.7 mm
12:57 14.8 °F /  -9.6 °C 13.5 °F /  -10.3 °C 1018.8 in /  34496.6 hPa West 9.7 mph /  15.6 km/h 20.9 mph /  33.6 km/h 92 % 0.5 in /  12.7 mm
13:02 14.8 °F /  -9.6 °C 13.5 °F /  -10.3 °C 1019.2 in /  34510.1 hPa WSW 8.0 mph /  12.9 km/h 16.1 mph /  25.9 km/h 92 % 0.5 in /  12.7 mm
13:07 14.8 °F /  -9.6 °C 13.5 °F /  -10.3 °C 1019.2 in /  34510.1 hPa NW 11.3 mph /  18.2 km/h 16.1 mph /  25.9 km/h 92 % 0.8 in /  20.32 mm
13:12 14.8 °F /  -9.6 °C 13.7 °F /  -10.2 °C 1019.2 in /  34510.1 hPa WNW 6.4 mph /  10.3 km/h 16.1 mph /  25.9 km/h 93 % 0.8 in /  20.32 mm
13:17 14.8 °F /  -9.6 °C 13.7 °F /  -10.2 °C 1019.2 in /  34510.1 hPa WSW 6.4 mph /  10.3 km/h 16.1 mph /  25.9 km/h 93 % 0.8 in /  20.32 mm
13:22 14.9 °F /  -9.5 °C 13.6 °F /  -10.2 °C 1019.2 in /  34510.1 hPa West 16.1 mph /  25.9 km/h 16.1 mph /  25.9 km/h 92 % 0.8 in /  20.32 mm
13:27 14.9 °F /  -9.5 °C 13.6 °F /  -10.2 °C 1019.2 in /  34510.1 hPa WSW 8.0 mph /  12.9 km/h 17.7 mph /  28.5 km/h 92 % 1.0 in /  25.4 mm
13:32 15.1 °F /  -9.4 °C 14.0 °F /  -10 °C 1019.2 in /  34510.1 hPa WSW 9.7 mph /  15.6 km/h 17.7 mph /  28.5 km/h 93 % 1.0 in /  25.4 mm
13:37 15.1 °F /  -9.4 °C 13.8 °F /  -10.1 °C 1019.2 in /  34510.1 hPa West 9.7 mph /  15.6 km/h 19.3 mph /  31.1 km/h 92 % 0.8 in /  20.32 mm
13:42 15.1 °F /  -9.4 °C 13.8 °F /  -10.1 °C 1019.2 in /  34510.1 hPa West 8.0 mph /  12.9 km/h 19.3 mph /  31.1 km/h 92 % 0.8 in /  20.32 mm
13:52 15.1 °F /  -9.4 °C 13.8 °F /  -10.1 °C 1019.2 in /  34510.1 hPa West 6.4 mph /  10.3 km/h 19.3 mph /  31.1 km/h 92 % 0.8 in /  20.32 mm
13:57 15.3 °F /  -9.3 °C 14.0 °F /  -10 °C 1019.2 in /  34510.1 hPa SW 4.8 mph /  7.7 km/h 22.5 mph /  36.2 km/h 92 % 0.5 in /  12.7 mm
14:02 15.3 °F /  -9.3 °C 13.8 °F /  -10.1 °C 1019.2 in /  34510.1 hPa West 11.3 mph /  18.2 km/h 22.5 mph /  36.2 km/h 91 % 0.5 in /  12.7 mm
14:12 15.3 °F /  -9.3 °C 14.0 °F /  -10 °C 1018.8 in /  34496.6 hPa WSW 16.1 mph /  25.9 km/h 19.3 mph /  31.1 km/h 92 % 0.3 in /  7.62 mm
14:17 15.4 °F /  -9.2 °C 14.1 °F /  -9.9 °C 1018.8 in /  34496.6 hPa SW 9.7 mph /  15.6 km/h 17.7 mph /  28.5 km/h 92 % 0.3 in /  7.62 mm
14:22 15.4 °F /  -9.2 °C 14.1 °F /  -9.9 °C 1019.2 in /  34510.1 hPa SW 9.7 mph /  15.6 km/h 17.7 mph /  28.5 km/h 92 % 0.0 in /  0 mm
14:32 15.4 °F /  -9.2 °C 14.1 °F /  -9.9 °C 1019.2 in /  34510.1 hPa SW 9.7 mph /  15.6 km/h 24.1 mph /  38.8 km/h 92 % 0.0 in /  0 mm
14:42 15.5 °F /  -9.2 °C 14.2 °F /  -9.9 °C 1019.2 in /  34510.1 hPa WSW 9.7 mph /  15.6 km/h 24.1 mph /  38.8 km/h 92 % 0.3 in /  7.62 mm
14:47 15.5 °F /  -9.2 °C 14.4 °F /  -9.8 °C 1019.2 in /  34510.1 hPa West 3.2 mph /  5.1 km/h 19.3 mph /  31.1 km/h 93 % 0.3 in /  7.62 mm
14:52 15.5 °F /  -9.2 °C 14.4 °F /  -9.8 °C 1019.2 in /  34510.1 hPa WSW 9.7 mph /  15.6 km/h 14.5 mph /  23.3 km/h 93 % 0.5 in /  12.7 mm
14:57 15.6 °F /  -9.1 °C 14.5 °F /  -9.7 °C 1019.2 in /  34510.1 hPa SSW 6.4 mph /  10.3 km/h 17.7 mph /  28.5 km/h 93 % 0.5 in /  12.7 mm
15:02 15.6 °F /  -9.1 °C 14.3 °F /  -9.8 °C 1019.2 in /  34510.1 hPa SW 6.4 mph /  10.3 km/h 17.7 mph /  28.5 km/h 92 % 0.5 in /  12.7 mm
15:12 15.9 °F /  -8.9 °C 14.8 °F /  -9.6 °C 1019.2 in /  34510.1 hPa WSW 4.8 mph /  7.7 km/h 14.5 mph /  23.3 km/h 93 % 0.5 in /  12.7 mm
15:22 15.9 °F /  -8.9 °C 14.6 °F /  -9.7 °C 1019.2 in /  34510.1 hPa SW 17.7 mph /  28.5 km/h 17.7 mph /  28.5 km/h 92 % 0.5 in /  12.7 mm
15:27 15.9 °F /  -8.9 °C 14.6 °F /  -9.7 °C 1019.2 in /  34510.1 hPa SW 14.5 mph /  23.3 km/h 20.9 mph /  33.6 km/h 92 % 0.5 in /  12.7 mm
15:32 16.1 °F /  -8.8 °C 14.8 °F /  -9.6 °C 1019.2 in /  34510.1 hPa SW 6.4 mph /  10.3 km/h 20.9 mph /  33.6 km/h 92 % 0.5 in /  12.7 mm
15:37 16.1 °F /  -8.8 °C 15.0 °F /  -9.4 °C 1019.2 in /  34510.1 hPa WSW 12.9 mph /  20.8 km/h 20.9 mph /  33.6 km/h 93 % 0.5 in /  12.7 mm
15:42 16.0 °F /  -8.9 °C 14.7 °F /  -9.6 °C 1019.2 in /  34510.1 hPa WSW 6.4 mph /  10.3 km/h 17.7 mph /  28.5 km/h 92 % 0.5 in /  12.7 mm
15:52 16.1 °F /  -8.8 °C 15.0 °F /  -9.4 °C 1019.2 in /  34510.1 hPa West 4.8 mph /  7.7 km/h 19.3 mph /  31.1 km/h 93 % 0.5 in /  12.7 mm
16:02 16.1 °F /  -8.8 °C 14.8 °F /  -9.6 °C 1019.2 in /  34510.1 hPa WSW 16.1 mph /  25.9 km/h 17.7 mph /  28.5 km/h 92 % 0.5 in /  12.7 mm
16:12 16.2 °F /  -8.8 °C 14.9 °F /  -9.5 °C 1019.2 in /  34510.1 hPa SW 8.0 mph /  12.9 km/h 16.1 mph /  25.9 km/h 92 % 0.5 in /  12.7 mm
16:17 16.2 °F /  -8.8 °C 14.9 °F /  -9.5 °C 1019.2 in /  34510.1 hPa WSW 17.7 mph /  28.5 km/h 17.7 mph /  28.5 km/h 92 % 0.5 in /  12.7 mm
16:22 16.0 °F /  -8.9 °C 14.9 °F /  -9.5 °C 1019.2 in /  34510.1 hPa SW 8.0 mph /  12.9 km/h 20.9 mph /  33.6 km/h 93 % 0.5 in /  12.7 mm
16:27 15.8 °F /  -9 °C 14.5 °F /  -9.7 °C 1019.5 in /  34520.3 hPa WSW 14.5 mph /  23.3 km/h 25.7 mph /  41.4 km/h 92 % 1.0 in /  25.4 mm
16:32 15.5 °F /  -9.2 °C 14.4 °F /  -9.8 °C 1019.2 in /  34510.1 hPa West 8.0 mph /  12.9 km/h 25.7 mph /  41.4 km/h 93 % 1.8 in /  45.72 mm
16:37 15.3 °F /  -9.3 °C 14.2 °F /  -9.9 °C 1019.5 in /  34520.3 hPa WSW 24.1 mph /  38.8 km/h 25.7 mph /  41.4 km/h 93 % 2.0 in /  50.8 mm
16:42 15.2 °F /  -9.3 °C 14.2 °F /  -9.9 °C 1019.5 in /  34520.3 hPa WSW 14.5 mph /  23.3 km/h 29.0 mph /  46.7 km/h 94 % 2.3 in /  58.42 mm
16:47 15.2 °F /  -9.3 °C 14.2 °F /  -9.9 °C 1019.5 in /  34520.3 hPa West 12.9 mph /  20.8 km/h 29.0 mph /  46.7 km/h 94 % 2.3 in /  58.42 mm
16:52 15.1 °F /  -9.4 °C 14.0 °F /  -10 °C 1019.5 in /  34520.3 hPa West 8.0 mph /  12.9 km/h 29.0 mph /  46.7 km/h 93 % 2.3 in /  58.42 mm
16:57 15.1 °F /  -9.4 °C 14.0 °F /  -10 °C 1019.5 in /  34520.3 hPa West 9.7 mph /  15.6 km/h 20.9 mph /  33.6 km/h 93 % 2.3 in /  58.42 mm
17:02 15.2 °F /  -9.3 °C 14.1 °F /  -9.9 °C 1019.5 in /  34520.3 hPa SW 9.7 mph /  15.6 km/h 19.3 mph /  31.1 km/h 93 % 2.3 in /  58.42 mm
17:12 15.3 °F /  -9.3 °C 14.2 °F /  -9.9 °C 1019.5 in /  34520.3 hPa WNW 6.4 mph /  10.3 km/h 22.5 mph /  36.2 km/h 93 % 2.3 in /  58.42 mm
17:17 15.3 °F /  -9.3 °C 14.3 °F /  -9.8 °C 1019.5 in /  34520.3 hPa SW 9.7 mph /  15.6 km/h 22.5 mph /  36.2 km/h 94 % 2.0 in /  50.8 mm
17:22 15.4 °F /  -9.2 °C 14.4 °F /  -9.8 °C 1019.5 in /  34520.3 hPa WSW 4.8 mph /  7.7 km/h 19.3 mph /  31.1 km/h 94 % 1.8 in /  45.72 mm
17:27 15.4 °F /  -9.2 °C 14.4 °F /  -9.8 °C 1019.5 in /  34520.3 hPa West 9.7 mph /  15.6 km/h 24.1 mph /  38.8 km/h 94 % 1.5 in /  38.1 mm
17:32 15.4 °F /  -9.2 °C 14.4 °F /  -9.8 °C 1019.9 in /  34533.8 hPa WSW 11.3 mph /  18.2 km/h 24.1 mph /  38.8 km/h 94 % 1.3 in /  33.02 mm
17:42 15.4 °F /  -9.2 °C 14.4 °F /  -9.8 °C 1019.9 in /  34533.8 hPa WNW 8.0 mph /  12.9 km/h 24.1 mph /  38.8 km/h 94 % 1.3 in /  33.02 mm
17:47 15.4 °F /  -9.2 °C 14.4 °F /  -9.8 °C 1019.9 in /  34533.8 hPa WSW 6.4 mph /  10.3 km/h 20.9 mph /  33.6 km/h 94 % 1.3 in /  33.02 mm
17:52 15.4 °F /  -9.2 °C 14.4 °F /  -9.8 °C 1019.9 in /  34533.8 hPa WNW 8.0 mph /  12.9 km/h 14.5 mph /  23.3 km/h 94 % 1.3 in /  33.02 mm
17:57 15.4 °F /  -9.2 °C 14.4 °F /  -9.8 °C 1019.9 in /  34533.8 hPa WNW 3.2 mph /  5.1 km/h 14.5 mph /  23.3 km/h 94 % 1.5 in /  38.1 mm
18:02 15.3 °F /  -9.3 °C 14.5 °F /  -9.7 °C 1019.9 in /  34533.8 hPa NW 6.4 mph /  10.3 km/h 12.9 mph /  20.8 km/h 95 % 2.3 in /  58.42 mm
18:07 15.2 °F /  -9.3 °C 14.4 °F /  -9.8 °C 1019.9 in /  34533.8 hPa WSW 1.6 mph /  2.6 km/h 16.1 mph /  25.9 km/h 95 % 2.8 in /  71.12 mm
18:12 15.2 °F /  -9.3 °C 14.4 °F /  -9.8 °C 1019.9 in /  34533.8 hPa WNW 19.3 mph /  31.1 km/h 19.3 mph /  31.1 km/h 95 % 3.0 in /  76.2 mm
18:17 15.2 °F /  -9.3 °C 14.4 °F /  -9.8 °C 1019.9 in /  34533.8 hPa WNW 14.5 mph /  23.3 km/h 16.1 mph /  25.9 km/h 95 % 3.0 in /  76.2 mm
18:22 15.1 °F /  -9.4 °C 14.3 °F /  -9.8 °C 1019.9 in /  34533.8 hPa West 3.2 mph /  5.1 km/h 22.5 mph /  36.2 km/h 95 % 3.3 in /  83.82 mm
18:32 15.1 °F /  -9.4 °C 14.3 °F /  -9.8 °C 1019.9 in /  34533.8 hPa NW 4.8 mph /  7.7 km/h 17.7 mph /  28.5 km/h 95 % 3.0 in /  76.2 mm
18:37 15.0 °F /  -9.4 °C 14.2 °F /  -9.9 °C 1019.9 in /  34533.8 hPa WNW 8.0 mph /  12.9 km/h 19.3 mph /  31.1 km/h 95 % 2.8 in /  71.12 mm
18:42 15.1 °F /  -9.4 °C 14.3 °F /  -9.8 °C 1020.2 in /  34544 hPa NW 3.2 mph /  5.1 km/h 19.3 mph /  31.1 km/h 95 % 2.3 in /  58.42 mm
18:52 15.1 °F /  -9.4 °C 14.3 °F /  -9.8 °C 1020.2 in /  34544 hPa WNW 6.4 mph /  10.3 km/h 11.3 mph /  18.2 km/h 95 % 2.3 in /  58.42 mm
18:57 15.1 °F /  -9.4 °C 14.3 °F /  -9.8 °C 1020.2 in /  34544 hPa WNW 1.6 mph /  2.6 km/h 16.1 mph /  25.9 km/h 95 % 1.5 in /  38.1 mm
19:02 15.1 °F /  -9.4 °C 14.1 °F /  -9.9 °C 1020.2 in /  34544 hPa WNW 4.8 mph /  7.7 km/h 16.1 mph /  25.9 km/h 94 % 1.0 in /  25.4 mm
19:07 15.1 °F /  -9.4 °C 14.1 °F /  -9.9 °C 1020.5 in /  34554.1 hPa WNW 6.4 mph /  10.3 km/h 11.3 mph /  18.2 km/h 94 % 0.5 in /  12.7 mm
19:12 15.2 °F /  -9.3 °C 14.2 °F /  -9.9 °C 1020.5 in /  34554.1 hPa West 6.4 mph /  10.3 km/h 14.5 mph /  23.3 km/h 94 % 0.5 in /  12.7 mm
19:17 15.2 °F /  -9.3 °C 14.2 °F /  -9.9 °C 1020.5 in /  34554.1 hPa NNW 6.4 mph /  10.3 km/h 14.5 mph /  23.3 km/h 94 % 0.3 in /  7.62 mm
19:22 15.2 °F /  -9.3 °C 14.2 °F /  -9.9 °C 1020.5 in /  34554.1 hPa NW 3.2 mph /  5.1 km/h 14.5 mph /  23.3 km/h 94 % 0.3 in /  7.62 mm
19:32 15.2 °F /  -9.3 °C 14.2 °F /  -9.9 °C 1020.5 in /  34554.1 hPa WNW 3.2 mph /  5.1 km/h 11.3 mph /  18.2 km/h 94 % 0.0 in /  0 mm
19:37 15.1 °F /  -9.4 °C 14.1 °F /  -9.9 °C 1020.5 in /  34554.1 hPa NNW 4.8 mph /  7.7 km/h 11.3 mph /  18.2 km/h 94 % 0.0 in /  0 mm
19:42 15.1 °F /  -9.4 °C 14.1 °F /  -9.9 °C 1020.9 in /  34567.7 hPa WNW 3.2 mph /  5.1 km/h 12.9 mph /  20.8 km/h 94 % 0.0 in /  0 mm
19:47 15.2 °F /  -9.3 °C 14.2 °F /  -9.9 °C 1020.9 in /  34567.7 hPa WNW 8.0 mph /  12.9 km/h 12.9 mph /  20.8 km/h 94 % 0.0 in /  0 mm
19:52 15.2 °F /  -9.3 °C 14.2 °F /  -9.9 °C 1020.9 in /  34567.7 hPa WNW 4.8 mph /  7.7 km/h 12.9 mph /  20.8 km/h 94 % 0.0 in /  0 mm
19:57 15.1 °F /  -9.4 °C 14.1 °F /  -9.9 °C 1020.9 in /  34567.7 hPa NW 4.8 mph /  7.7 km/h 11.3 mph /  18.2 km/h 94 % 0.0 in /  0 mm
20:02 15.1 °F /  -9.4 °C 14.1 °F /  -9.9 °C 1020.9 in /  34567.7 hPa NW 3.2 mph /  5.1 km/h 14.5 mph /  23.3 km/h 94 % 0.0 in /  0 mm
20:12 15.1 °F /  -9.4 °C 14.1 °F /  -9.9 °C 1020.9 in /  34567.7 hPa WNW 1.6 mph /  2.6 km/h 11.3 mph /  18.2 km/h 94 % 0.0 in /  0 mm
20:22 15.1 °F /  -9.4 °C 14.1 °F /  -9.9 °C 1020.9 in /  34567.7 hPa NW 3.2 mph /  5.1 km/h 6.4 mph /  10.3 km/h 94 % 0.0 in /  0 mm
20:32 15.1 °F /  -9.4 °C 14.1 °F /  -9.9 °C 1020.9 in /  34567.7 hPa WNW 3.2 mph /  5.1 km/h 11.3 mph /  18.2 km/h 94 % 0.0 in /  0 mm
20:37 15.1 °F /  -9.4 °C 14.1 °F /  -9.9 °C 1020.9 in /  34567.7 hPa NW 3.2 mph /  5.1 km/h 11.3 mph /  18.2 km/h 94 % 0.0 in /  0 mm
20:42 15.1 °F /  -9.4 °C 14.1 °F /  -9.9 °C 1021.2 in /  34577.8 hPa WNW 3.2 mph /  5.1 km/h 9.7 mph /  15.6 km/h 94 % 0.0 in /  0 mm
20:47 15.0 °F /  -9.4 °C 14.0 °F /  -10 °C 1021.2 in /  34577.8 hPa NNW 3.2 mph /  5.1 km/h 8.0 mph /  12.9 km/h 94 % 0.0 in /  0 mm
20:52 15.0 °F /  -9.4 °C 14.0 °F /  -10 °C 1021.2 in /  34577.8 hPa NW 3.2 mph /  5.1 km/h 6.4 mph /  10.3 km/h 94 % 0.0 in /  0 mm
20:57 14.9 °F /  -9.5 °C 13.9 °F /  -10.1 °C 1021.2 in /  34577.8 hPa WNW 1.6 mph /  2.6 km/h 4.8 mph /  7.7 km/h 94 % 0.0 in /  0 mm
21:02 14.9 °F /  -9.5 °C 13.9 °F /  -10.1 °C 1021.2 in /  34577.8 hPa West 4.8 mph /  7.7 km/h 6.4 mph /  10.3 km/h 94 % 0.0 in /  0 mm
21:12 14.9 °F /  -9.5 °C 13.9 °F /  -10.1 °C 1021.2 in /  34577.8 hPa WSW 1.6 mph /  2.6 km/h 6.4 mph /  10.3 km/h 94 % 0.0 in /  0 mm
21:22 14.9 °F /  -9.5 °C 13.9 °F /  -10.1 °C 1021.2 in /  34577.8 hPa Calm   9.7 mph /  15.6 km/h 94 % 0.0 in /  0 mm
21:32 14.9 °F /  -9.5 °C 13.9 °F /  -10.1 °C 1021.6 in /  34591.4 hPa WNW 1.6 mph /  2.6 km/h 9.7 mph /  15.6 km/h 94 % 0.0 in /  0 mm
21:37 14.9 °F /  -9.5 °C 13.9 °F /  -10.1 °C 1021.6 in /  34591.4 hPa Calm   6.4 mph /  10.3 km/h 94 % 0.0 in /  0 mm
21:42 14.8 °F /  -9.6 °C 13.8 °F /  -10.1 °C 1021.6 in /  34591.4 hPa Calm   4.8 mph /  7.7 km/h 94 % 0.0 in /  0 mm
21:52 14.8 °F /  -9.6 °C 13.8 °F /  -10.1 °C 1021.6 in /  34591.4 hPa West 4.8 mph /  7.7 km/h 6.4 mph /  10.3 km/h 94 % 0.0 in /  0 mm
21:57 14.8 °F /  -9.6 °C 13.8 °F /  -10.1 °C 1021.6 in /  34591.4 hPa West 3.2 mph /  5.1 km/h 8.0 mph /  12.9 km/h 94 % 0.0 in /  0 mm
22:02 14.8 °F /  -9.6 °C 13.8 °F /  -10.1 °C 1021.6 in /  34591.4 hPa Calm   8.0 mph /  12.9 km/h 94 % 0.0 in /  0 mm
22:12 14.9 °F /  -9.5 °C 13.9 °F /  -10.1 °C 1021.6 in /  34591.4 hPa Calm   6.4 mph /  10.3 km/h 94 % 0.0 in /  0 mm
22:22 14.8 °F /  -9.6 °C 13.7 °F /  -10.2 °C 1021.9 in /  34601.5 hPa Calm   3.2 mph /  5.1 km/h 93 % 0.0 in /  0 mm
22:32 14.8 °F /  -9.6 °C 13.8 °F /  -10.1 °C 1021.9 in /  34601.5 hPa West 1.6 mph /  2.6 km/h 4.8 mph /  7.7 km/h 94 % 0.0 in /  0 mm
22:42 14.9 °F /  -9.5 °C 13.9 °F /  -10.1 °C 1022.2 in /  34611.7 hPa Calm   9.7 mph /  15.6 km/h 94 % 0.0 in /  0 mm
22:47 14.9 °F /  -9.5 °C 13.9 °F /  -10.1 °C 1022.2 in /  34611.7 hPa NW 3.2 mph /  5.1 km/h 9.7 mph /  15.6 km/h 94 % 0.0 in /  0 mm
22:52 14.9 °F /  -9.5 °C 13.9 °F /  -10.1 °C 1022.2 in /  34611.7 hPa Calm   9.7 mph /  15.6 km/h 94 % 0.0 in /  0 mm
22:57 14.9 °F /  -9.5 °C 13.9 °F /  -10.1 °C 1022.2 in /  34611.7 hPa Calm   6.4 mph /  10.3 km/h 94 % 0.0 in /  0 mm
23:02 15.0 °F /  -9.4 °C 14.0 °F /  -10 °C 1022.2 in /  34611.7 hPa West 1.6 mph /  2.6 km/h 4.8 mph /  7.7 km/h 94 % 0.0 in /  0 mm
23:12 15.0 °F /  -9.4 °C 14.0 °F /  -10 °C 1022.2 in /  34611.7 hPa West 3.2 mph /  5.1 km/h 6.4 mph /  10.3 km/h 94 % 0.0 in /  0 mm
23:17 15.1 °F /  -9.4 °C 14.1 °F /  -9.9 °C 1022.2 in /  34611.7 hPa West 3.2 mph /  5.1 km/h 6.4 mph /  10.3 km/h 94 % 0.0 in /  0 mm
23:22 15.1 °F /  -9.4 °C 14.3 °F /  -9.8 °C 1022.6 in /  34625.2 hPa West 1.6 mph /  2.6 km/h 6.4 mph /  10.3 km/h 95 % 0.0 in /  0 mm
23:27 15.1 °F /  -9.4 °C 14.3 °F /  -9.8 °C 1022.6 in /  34625.2 hPa WNW 4.8 mph /  7.7 km/h 8.0 mph /  12.9 km/h 95 % 0.0 in /  0 mm
23:32 15.2 °F /  -9.3 °C 14.4 °F /  -9.8 °C 1022.2 in /  34611.7 hPa West 3.2 mph /  5.1 km/h 8.0 mph /  12.9 km/h 95 % 0.0 in /  0 mm
23:37 15.2 °F /  -9.3 °C 14.4 °F /  -9.8 °C 1022.6 in /  34625.2 hPa Calm   8.0 mph /  12.9 km/h 95 % 0.0 in /  0 mm
23:42 15.2 °F /  -9.3 °C 14.2 °F /  -9.9 °C 1022.6 in /  34625.2 hPa Calm   6.4 mph /  10.3 km/h 94 % 0.0 in /  0 mm
23:47 15.1 °F /  -9.4 °C 14.1 °F /  -9.9 °C 1022.6 in /  34625.2 hPa SW 1.6 mph /  2.6 km/h 6.4 mph /  10.3 km/h 94 % 0.0 in /  0 mm
23:52 15.1 °F /  -9.4 °C 14.1 °F /  -9.9 °C 1022.6 in /  34625.2 hPa Calm   6.4 mph /  10.3 km/h 94 % 0.0 in /  0 mm
23:57 14.9 °F /  -9.5 °C 13.9 °F /  -10.1 °C 1022.6 in /  34625.2 hPa ESE 1.6 mph /  2.6 km/h 3.2 mph /  5.1 km/h 94 % 0.0 in /  0 mm
Meteo18
Compliments of Weather Underground - 4 mb

Script developed by  Jim McMurry - jmcmurry@mwt.net Adapted for the template by  Wim van der Kuil - Leuven-Template.eu

You find our weather info also at:

European Weather Network

Weather Underground

Equipment we use:

Weather-station
Davis Vue

Weather-program
Meteobridge

Weather-server
Raspberry PI 2 B+

Provider
1 and 1

Davis Vue

Meteobridge

Raspberry PI 2 B+

1 and 1